sensor_id;sensor_type;location;lat;lon;timestamp;P1;durP1;ratioP1;P2;durP2;ratioP2
26407;SDS011;14583;43.604;1.364;2024-03-02T00:01:12;19.23;;;11.00;;
26407;SDS011;14583;43.604;1.364;2024-03-02T00:03:38;16.48;;;10.52;;
26407;SDS011;14583;43.604;1.364;2024-03-02T00:06:04;16.67;;;10.13;;
26407;SDS011;14583;43.604;1.364;2024-03-02T00:08:29;18.92;;;11.20;;
26407;SDS011;14583;43.604;1.364;2024-03-02T00:10:56;18.60;;;10.40;;
26407;SDS011;14583;43.604;1.364;2024-03-02T00:13:23;16.23;;;10.43;;
26407;SDS011;14583;43.604;1.364;2024-03-02T00:15:53;16.42;;;10.40;;
26407;SDS011;14583;43.604;1.364;2024-03-02T00:18:27;15.27;;;10.30;;
26407;SDS011;14583;43.604;1.364;2024-03-02T00:20:56;15.98;;;10.68;;
26407;SDS011;14583;43.604;1.364;2024-03-02T00:23:23;15.18;;;9.98;;
26407;SDS011;14583;43.604;1.364;2024-03-02T00:25:53;13.38;;;7.25;;
26407;SDS011;14583;43.604;1.364;2024-03-02T00:28:21;11.15;;;7.65;;
26407;SDS011;14583;43.604;1.364;2024-03-02T00:31:02;11.10;;;5.50;;
26407;SDS011;14583;43.604;1.364;2024-03-02T00:33:46;10.18;;;3.95;;
26407;SDS011;14583;43.604;1.364;2024-03-02T00:38:52;8.20;;;3.25;;
26407;SDS011;14583;43.604;1.364;2024-03-02T00:41:23;5.13;;;3.00;;
26407;SDS011;14583;43.604;1.364;2024-03-02T00:46:26;11.55;;;6.22;;
26407;SDS011;14583;43.604;1.364;2024-03-02T00:48:59;15.73;;;7.65;;
26407;SDS011;14583;43.604;1.364;2024-03-02T00:51:26;12.60;;;8.43;;
26407;SDS011;14583;43.604;1.364;2024-03-02T00:53:55;14.52;;;8.52;;
26407;SDS011;14583;43.604;1.364;2024-03-02T00:56:23;14.07;;;9.00;;
26407;SDS011;14583;43.604;1.364;2024-03-02T00:58:50;17.55;;;8.70;;
26407;SDS011;14583;43.604;1.364;2024-03-02T01:01:16;15.02;;;9.60;;
26407;SDS011;14583;43.604;1.364;2024-03-02T01:03:42;13.80;;;7.90;;
26407;SDS011;14583;43.604;1.364;2024-03-02T01:06:08;14.27;;;7.90;;
26407;SDS011;14583;43.604;1.364;2024-03-02T01:08:34;16.60;;;8.23;;
26407;SDS011;14583;43.604;1.364;2024-03-02T01:11:01;12.98;;;7.68;;
26407;SDS011;14583;43.604;1.364;2024-03-02T01:13:27;14.77;;;9.23;;
26407;SDS011;14583;43.604;1.364;2024-03-02T01:15:53;16.35;;;8.70;;
26407;SDS011;14583;43.604;1.364;2024-03-02T01:18:18;15.00;;;9.45;;
26407;SDS011;14583;43.604;1.364;2024-03-02T01:20:44;17.17;;;8.18;;
26407;SDS011;14583;43.604;1.364;2024-03-02T01:23:10;12.93;;;7.65;;
26407;SDS011;14583;43.604;1.364;2024-03-02T01:25:36;16.05;;;8.68;;
26407;SDS011;14583;43.604;1.364;2024-03-02T01:28:02;14.18;;;7.75;;
26407;SDS011;14583;43.604;1.364;2024-03-02T01:30:28;12.98;;;7.78;;
26407;SDS011;14583;43.604;1.364;2024-03-02T01:32:54;13.35;;;7.80;;
26407;SDS011;14583;43.604;1.364;2024-03-02T01:35:19;13.95;;;7.15;;
26407;SDS011;14583;43.604;1.364;2024-03-02T01:37:45;12.18;;;7.20;;
26407;SDS011;14583;43.604;1.364;2024-03-02T01:40:11;11.50;;;7.05;;
26407;SDS011;14583;43.604;1.364;2024-03-02T01:42:37;12.20;;;7.18;;
26407;SDS011;14583;43.604;1.364;2024-03-02T01:45:05;10.27;;;6.78;;
26407;SDS011;14583;43.604;1.364;2024-03-02T01:47:31;12.75;;;7.10;;
26407;SDS011;14583;43.604;1.364;2024-03-02T01:49:57;11.93;;;5.60;;
26407;SDS011;14583;43.604;1.364;2024-03-02T01:52:23;9.60;;;5.72;;
26407;SDS011;14583;43.604;1.364;2024-03-02T01:54:49;9.80;;;4.85;;
26407;SDS011;14583;43.604;1.364;2024-03-02T01:57:15;10.18;;;6.70;;
26407;SDS011;14583;43.604;1.364;2024-03-02T01:59:41;12.60;;;6.38;;
26407;SDS011;14583;43.604;1.364;2024-03-02T02:02:06;7.90;;;4.22;;
26407;SDS011;14583;43.604;1.364;2024-03-02T02:04:32;6.97;;;3.35;;
26407;SDS011;14583;43.604;1.364;2024-03-02T02:06:59;5.10;;;2.40;;
26407;SDS011;14583;43.604;1.364;2024-03-02T02:09:25;6.38;;;2.35;;
26407;SDS011;14583;43.604;1.364;2024-03-02T02:11:51;7.78;;;2.20;;
26407;SDS011;14583;43.604;1.364;2024-03-02T02:14:17;7.78;;;2.53;;
26407;SDS011;14583;43.604;1.364;2024-03-02T02:16:43;7.88;;;2.33;;
26407;SDS011;14583;43.604;1.364;2024-03-02T02:19:09;10.43;;;2.13;;
26407;SDS011;14583;43.604;1.364;2024-03-02T02:21:35;10.45;;;2.45;;
26407;SDS011;14583;43.604;1.364;2024-03-02T02:24:01;8.73;;;2.50;;
26407;SDS011;14583;43.604;1.364;2024-03-02T02:26:29;6.88;;;1.92;;
26407;SDS011;14583;43.604;1.364;2024-03-02T02:28:54;7.57;;;2.10;;
26407;SDS011;14583;43.604;1.364;2024-03-02T02:31:20;5.40;;;2.00;;
26407;SDS011;14583;43.604;1.364;2024-03-02T02:33:46;5.30;;;2.10;;
26407;SDS011;14583;43.604;1.364;2024-03-02T02:36:11;5.32;;;1.67;;
26407;SDS011;14583;43.604;1.364;2024-03-02T02:38:42;4.78;;;1.83;;
26407;SDS011;14583;43.604;1.364;2024-03-02T02:41:10;5.80;;;2.03;;
26407;SDS011;14583;43.604;1.364;2024-03-02T02:43:36;5.50;;;2.05;;
26407;SDS011;14583;43.604;1.364;2024-03-02T02:46:02;8.40;;;1.90;;
26407;SDS011;14583;43.604;1.364;2024-03-02T02:48:28;7.72;;;2.00;;
26407;SDS011;14583;43.604;1.364;2024-03-02T02:50:54;13.55;;;3.28;;
26407;SDS011;14583;43.604;1.364;2024-03-02T02:53:20;10.55;;;1.80;;
26407;SDS011;14583;43.604;1.364;2024-03-02T02:55:45;4.78;;;1.52;;
26407;SDS011;14583;43.604;1.364;2024-03-02T02:58:11;7.00;;;1.70;;
26407;SDS011;14583;43.604;1.364;2024-03-02T03:00:37;5.55;;;1.80;;
26407;SDS011;14583;43.604;1.364;2024-03-02T03:03:03;4.10;;;1.73;;
26407;SDS011;14583;43.604;1.364;2024-03-02T03:05:29;6.97;;;1.70;;
26407;SDS011;14583;43.604;1.364;2024-03-02T03:07:55;6.95;;;3.03;;
26407;SDS011;14583;43.604;1.364;2024-03-02T03:10:21;7.97;;;3.78;;
26407;SDS011;14583;43.604;1.364;2024-03-02T03:12:48;11.27;;;5.50;;
26407;SDS011;14583;43.604;1.364;2024-03-02T03:15:14;8.65;;;5.30;;
26407;SDS011;14583;43.604;1.364;2024-03-02T03:17:41;9.88;;;6.20;;
26407;SDS011;14583;43.604;1.364;2024-03-02T03:20:07;10.73;;;6.30;;
26407;SDS011;14583;43.604;1.364;2024-03-02T03:22:36;14.02;;;7.20;;
26407;SDS011;14583;43.604;1.364;2024-03-02T03:25:02;14.18;;;7.88;;
26407;SDS011;14583;43.604;1.364;2024-03-02T03:27:28;13.98;;;7.78;;
26407;SDS011;14583;43.604;1.364;2024-03-02T03:29:54;12.38;;;8.38;;
26407;SDS011;14583;43.604;1.364;2024-03-02T03:32:20;12.27;;;7.97;;
26407;SDS011;14583;43.604;1.364;2024-03-02T03:34:46;14.43;;;8.95;;
26407;SDS011;14583;43.604;1.364;2024-03-02T03:37:13;15.07;;;9.95;;
26407;SDS011;14583;43.604;1.364;2024-03-02T03:39:40;16.08;;;9.35;;
26407;SDS011;14583;43.604;1.364;2024-03-02T03:42:06;16.38;;;9.23;;
26407;SDS011;14583;43.604;1.364;2024-03-02T03:44:31;15.05;;;9.52;;
26407;SDS011;14583;43.604;1.364;2024-03-02T03:46:58;16.45;;;10.05;;
26407;SDS011;14583;43.604;1.364;2024-03-02T03:49:24;13.25;;;9.48;;
26407;SDS011;14583;43.604;1.364;2024-03-02T03:51:50;13.02;;;8.60;;
26407;SDS011;14583;43.604;1.364;2024-03-02T03:54:16;14.50;;;8.70;;
26407;SDS011;14583;43.604;1.364;2024-03-02T03:56:41;15.00;;;8.95;;
26407;SDS011;14583;43.604;1.364;2024-03-02T03:59:07;14.60;;;9.27;;
26407;SDS011;14583;43.604;1.364;2024-03-02T04:01:33;18.23;;;9.30;;
26407;SDS011;14583;43.604;1.364;2024-03-02T04:03:58;16.27;;;9.07;;
26407;SDS011;14583;43.604;1.364;2024-03-02T04:06:24;14.25;;;8.95;;
26407;SDS011;14583;43.604;1.364;2024-03-02T04:08:50;14.20;;;9.35;;
26407;SDS011;14583;43.604;1.364;2024-03-02T04:11:16;14.38;;;8.02;;
26407;SDS011;14583;43.604;1.364;2024-03-02T04:13:41;13.15;;;9.75;;
26407;SDS011;14583;43.604;1.364;2024-03-02T04:16:07;15.23;;;9.30;;
26407;SDS011;14583;43.604;1.364;2024-03-02T04:18:33;15.43;;;8.68;;
26407;SDS011;14583;43.604;1.364;2024-03-02T04:20:59;15.40;;;8.80;;
26407;SDS011;14583;43.604;1.364;2024-03-02T04:23:28;14.63;;;9.02;;
26407;SDS011;14583;43.604;1.364;2024-03-02T04:25:54;12.60;;;8.00;;
26407;SDS011;14583;43.604;1.364;2024-03-02T04:28:20;12.68;;;8.43;;
26407;SDS011;14583;43.604;1.364;2024-03-02T04:30:46;11.90;;;7.78;;
26407;SDS011;14583;43.604;1.364;2024-03-02T04:33:12;14.32;;;7.78;;
26407;SDS011;14583;43.604;1.364;2024-03-02T04:35:38;19.35;;;8.55;;
26407;SDS011;14583;43.604;1.364;2024-03-02T04:38:06;11.63;;;8.00;;
26407;SDS011;14583;43.604;1.364;2024-03-02T04:40:36;17.27;;;7.03;;
26407;SDS011;14583;43.604;1.364;2024-03-02T04:43:02;12.57;;;8.07;;
26407;SDS011;14583;43.604;1.364;2024-03-02T04:45:28;10.52;;;6.68;;
26407;SDS011;14583;43.604;1.364;2024-03-02T04:47:54;11.05;;;7.07;;
26407;SDS011;14583;43.604;1.364;2024-03-02T04:50:20;9.80;;;6.38;;
26407;SDS011;14583;43.604;1.364;2024-03-02T04:52:45;12.98;;;7.03;;
26407;SDS011;14583;43.604;1.364;2024-03-02T04:55:11;13.93;;;7.38;;
26407;SDS011;14583;43.604;1.364;2024-03-02T04:57:43;11.30;;;6.80;;
26407;SDS011;14583;43.604;1.364;2024-03-02T05:00:12;10.73;;;6.40;;
26407;SDS011;14583;43.604;1.364;2024-03-02T05:02:47;9.80;;;6.00;;
26407;SDS011;14583;43.604;1.364;2024-03-02T05:05:15;12.20;;;6.93;;
26407;SDS011;14583;43.604;1.364;2024-03-02T05:07:41;9.85;;;5.95;;
26407;SDS011;14583;43.604;1.364;2024-03-02T05:10:09;9.32;;;6.07;;
26407;SDS011;14583;43.604;1.364;2024-03-02T05:12:34;9.82;;;5.72;;
26407;SDS011;14583;43.604;1.364;2024-03-02T05:15:19;9.98;;;6.28;;
26407;SDS011;14583;43.604;1.364;2024-03-02T05:17:46;10.38;;;5.95;;
26407;SDS011;14583;43.604;1.364;2024-03-02T05:20:12;11.60;;;5.88;;
26407;SDS011;14583;43.604;1.364;2024-03-02T05:22:38;11.45;;;5.80;;
26407;SDS011;14583;43.604;1.364;2024-03-02T05:25:04;9.73;;;5.72;;
26407;SDS011;14583;43.604;1.364;2024-03-02T05:27:31;10.07;;;5.40;;
26407;SDS011;14583;43.604;1.364;2024-03-02T05:29:59;9.90;;;5.40;;
26407;SDS011;14583;43.604;1.364;2024-03-02T05:32:25;10.95;;;5.43;;
26407;SDS011;14583;43.604;1.364;2024-03-02T05:34:51;8.90;;;5.30;;
26407;SDS011;14583;43.604;1.364;2024-03-02T05:37:17;9.02;;;5.53;;
26407;SDS011;14583;43.604;1.364;2024-03-02T05:39:43;9.48;;;5.30;;
26407;SDS011;14583;43.604;1.364;2024-03-02T05:42:09;11.05;;;4.90;;
26407;SDS011;14583;43.604;1.364;2024-03-02T05:44:35;8.48;;;5.47;;
26407;SDS011;14583;43.604;1.364;2024-03-02T05:47:01;8.77;;;5.10;;
26407;SDS011;14583;43.604;1.364;2024-03-02T05:49:28;11.75;;;5.05;;
26407;SDS011;14583;43.604;1.364;2024-03-02T05:51:54;10.55;;;5.00;;
26407;SDS011;14583;43.604;1.364;2024-03-02T05:54:19;9.13;;;5.82;;
26407;SDS011;14583;43.604;1.364;2024-03-02T05:56:45;10.95;;;5.25;;
26407;SDS011;14583;43.604;1.364;2024-03-02T05:59:11;10.35;;;5.18;;
26407;SDS011;14583;43.604;1.364;2024-03-02T06:01:44;9.07;;;4.70;;
26407;SDS011;14583;43.604;1.364;2024-03-02T06:04:12;7.10;;;5.03;;
26407;SDS011;14583;43.604;1.364;2024-03-02T06:06:38;8.90;;;4.60;;
26407;SDS011;14583;43.604;1.364;2024-03-02T06:09:05;12.15;;;5.30;;
26407;SDS011;14583;43.604;1.364;2024-03-02T06:11:33;9.23;;;4.50;;
26407;SDS011;14583;43.604;1.364;2024-03-02T06:13:59;9.80;;;5.72;;
26407;SDS011;14583;43.604;1.364;2024-03-02T06:16:25;8.73;;;4.63;;
26407;SDS011;14583;43.604;1.364;2024-03-02T06:18:50;9.02;;;4.95;;
26407;SDS011;14583;43.604;1.364;2024-03-02T06:21:16;12.02;;;5.40;;
26407;SDS011;14583;43.604;1.364;2024-03-02T06:23:43;8.13;;;4.78;;
26407;SDS011;14583;43.604;1.364;2024-03-02T06:26:09;11.10;;;5.03;;
26407;SDS011;14583;43.604;1.364;2024-03-02T06:28:34;9.48;;;5.00;;
26407;SDS011;14583;43.604;1.364;2024-03-02T06:31:01;12.52;;;4.80;;
26407;SDS011;14583;43.604;1.364;2024-03-02T06:33:27;11.57;;;5.88;;
26407;SDS011;14583;43.604;1.364;2024-03-02T06:35:53;15.85;;;5.60;;
26407;SDS011;14583;43.604;1.364;2024-03-02T06:38:19;12.10;;;5.22;;
26407;SDS011;14583;43.604;1.364;2024-03-02T06:40:45;8.90;;;5.32;;
26407;SDS011;14583;43.604;1.364;2024-03-02T06:43:11;8.60;;;4.95;;
26407;SDS011;14583;43.604;1.364;2024-03-02T06:45:36;12.20;;;5.63;;
26407;SDS011;14583;43.604;1.364;2024-03-02T06:48:03;10.38;;;5.38;;
26407;SDS011;14583;43.604;1.364;2024-03-02T06:50:29;8.82;;;5.22;;
26407;SDS011;14583;43.604;1.364;2024-03-02T06:52:54;10.45;;;5.47;;
26407;SDS011;14583;43.604;1.364;2024-03-02T06:55:29;11.07;;;5.38;;
26407;SDS011;14583;43.604;1.364;2024-03-02T06:57:55;10.63;;;5.40;;
26407;SDS011;14583;43.604;1.364;2024-03-02T07:00:21;9.73;;;5.50;;
26407;SDS011;14583;43.604;1.364;2024-03-02T07:02:47;13.25;;;5.25;;
26407;SDS011;14583;43.604;1.364;2024-03-02T07:05:13;8.73;;;5.32;;
26407;SDS011;14583;43.604;1.364;2024-03-02T07:07:38;10.27;;;5.03;;
26407;SDS011;14583;43.604;1.364;2024-03-02T07:10:04;10.18;;;5.93;;
26407;SDS011;14583;43.604;1.364;2024-03-02T07:12:32;8.80;;;4.93;;
26407;SDS011;14583;43.604;1.364;2024-03-02T07:14:58;10.30;;;5.10;;
26407;SDS011;14583;43.604;1.364;2024-03-02T07:17:32;10.55;;;5.45;;
26407;SDS011;14583;43.604;1.364;2024-03-02T07:19:58;8.38;;;5.45;;
26407;SDS011;14583;43.604;1.364;2024-03-02T07:22:24;11.77;;;5.90;;
26407;SDS011;14583;43.604;1.364;2024-03-02T07:24:50;8.68;;;5.43;;
26407;SDS011;14583;43.604;1.364;2024-03-02T07:27:37;10.35;;;5.63;;
26407;SDS011;14583;43.604;1.364;2024-03-02T07:30:05;10.00;;;5.53;;
26407;SDS011;14583;43.604;1.364;2024-03-02T07:32:31;12.63;;;5.32;;
26407;SDS011;14583;43.604;1.364;2024-03-02T07:34:57;10.52;;;5.68;;
26407;SDS011;14583;43.604;1.364;2024-03-02T07:37:23;9.32;;;5.95;;
26407;SDS011;14583;43.604;1.364;2024-03-02T07:39:50;11.98;;;5.53;;
26407;SDS011;14583;43.604;1.364;2024-03-02T07:42:16;12.00;;;5.82;;
26407;SDS011;14583;43.604;1.364;2024-03-02T07:44:43;7.07;;;4.93;;
26407;SDS011;14583;43.604;1.364;2024-03-02T07:47:10;9.40;;;5.53;;
26407;SDS011;14583;43.604;1.364;2024-03-02T07:49:36;10.85;;;5.57;;
26407;SDS011;14583;43.604;1.364;2024-03-02T07:52:02;7.53;;;5.15;;
26407;SDS011;14583;43.604;1.364;2024-03-02T07:54:27;8.00;;;5.15;;
26407;SDS011;14583;43.604;1.364;2024-03-02T07:56:53;10.38;;;4.85;;
26407;SDS011;14583;43.604;1.364;2024-03-02T07:59:19;11.05;;;5.07;;
26407;SDS011;14583;43.604;1.364;2024-03-02T08:01:47;9.73;;;4.90;;
26407;SDS011;14583;43.604;1.364;2024-03-02T08:04:13;9.57;;;4.43;;
26407;SDS011;14583;43.604;1.364;2024-03-02T08:06:39;7.85;;;4.40;;
26407;SDS011;14583;43.604;1.364;2024-03-02T08:09:05;11.82;;;4.53;;
26407;SDS011;14583;43.604;1.364;2024-03-02T08:11:34;9.98;;;4.53;;
26407;SDS011;14583;43.604;1.364;2024-03-02T08:14:00;10.38;;;4.45;;
26407;SDS011;14583;43.604;1.364;2024-03-02T08:16:26;9.68;;;5.18;;
26407;SDS011;14583;43.604;1.364;2024-03-02T08:18:52;10.25;;;4.90;;
26407;SDS011;14583;43.604;1.364;2024-03-02T08:21:18;10.48;;;4.63;;
26407;SDS011;14583;43.604;1.364;2024-03-02T08:23:44;9.30;;;4.63;;
26407;SDS011;14583;43.604;1.364;2024-03-02T08:26:10;7.75;;;5.18;;
26407;SDS011;14583;43.604;1.364;2024-03-02T08:28:36;12.27;;;4.75;;
26407;SDS011;14583;43.604;1.364;2024-03-02T08:31:03;7.75;;;4.40;;
26407;SDS011;14583;43.604;1.364;2024-03-02T08:33:29;10.68;;;4.30;;
26407;SDS011;14583;43.604;1.364;2024-03-02T08:35:55;6.88;;;3.53;;
26407;SDS011;14583;43.604;1.364;2024-03-02T08:38:21;8.60;;;4.07;;
26407;SDS011;14583;43.604;1.364;2024-03-02T08:40:51;10.73;;;4.10;;
26407;SDS011;14583;43.604;1.364;2024-03-02T08:43:16;6.40;;;3.83;;
26407;SDS011;14583;43.604;1.364;2024-03-02T08:45:43;12.70;;;4.22;;
26407;SDS011;14583;43.604;1.364;2024-03-02T08:48:09;8.00;;;4.20;;
26407;SDS011;14583;43.604;1.364;2024-03-02T08:50:35;8.20;;;4.10;;
26407;SDS011;14583;43.604;1.364;2024-03-02T08:53:01;8.10;;;3.40;;
26407;SDS011;14583;43.604;1.364;2024-03-02T08:55:28;8.43;;;3.83;;
26407;SDS011;14583;43.604;1.364;2024-03-02T08:57:53;11.75;;;3.72;;
26407;SDS011;14583;43.604;1.364;2024-03-02T09:00:20;16.55;;;4.45;;
26407;SDS011;14583;43.604;1.364;2024-03-02T09:02:46;10.30;;;3.65;;
26407;SDS011;14583;43.604;1.364;2024-03-02T09:05:12;9.38;;;3.72;;
26407;SDS011;14583;43.604;1.364;2024-03-02T09:07:38;12.00;;;4.10;;
26407;SDS011;14583;43.604;1.364;2024-03-02T09:10:07;9.80;;;3.97;;
26407;SDS011;14583;43.604;1.364;2024-03-02T09:12:34;16.67;;;3.75;;
26407;SDS011;14583;43.604;1.364;2024-03-02T09:15:00;15.45;;;3.70;;
26407;SDS011;14583;43.604;1.364;2024-03-02T09:17:27;14.10;;;4.40;;
26407;SDS011;14583;43.604;1.364;2024-03-02T09:19:53;11.10;;;3.60;;
26407;SDS011;14583;43.604;1.364;2024-03-02T09:22:19;9.73;;;3.47;;
26407;SDS011;14583;43.604;1.364;2024-03-02T09:24:45;13.07;;;3.80;;
26407;SDS011;14583;43.604;1.364;2024-03-02T09:27:11;11.18;;;4.05;;
26407;SDS011;14583;43.604;1.364;2024-03-02T09:29:37;14.73;;;4.38;;
26407;SDS011;14583;43.604;1.364;2024-03-02T09:32:03;13.50;;;4.55;;
26407;SDS011;14583;43.604;1.364;2024-03-02T09:34:33;18.08;;;4.85;;
26407;SDS011;14583;43.604;1.364;2024-03-02T09:36:59;15.70;;;4.30;;
26407;SDS011;14583;43.604;1.364;2024-03-02T09:39:25;20.13;;;5.47;;
26407;SDS011;14583;43.604;1.364;2024-03-02T09:41:51;19.08;;;5.10;;
26407;SDS011;14583;43.604;1.364;2024-03-02T09:44:16;17.15;;;4.68;;
26407;SDS011;14583;43.604;1.364;2024-03-02T09:46:42;20.15;;;5.63;;
26407;SDS011;14583;43.604;1.364;2024-03-02T09:49:09;20.95;;;4.82;;
26407;SDS011;14583;43.604;1.364;2024-03-02T09:51:36;12.80;;;4.10;;
26407;SDS011;14583;43.604;1.364;2024-03-02T09:54:05;13.38;;;4.40;;
26407;SDS011;14583;43.604;1.364;2024-03-02T09:56:35;15.80;;;4.18;;
26407;SDS011;14583;43.604;1.364;2024-03-02T09:59:01;11.98;;;4.30;;
26407;SDS011;14583;43.604;1.364;2024-03-02T10:01:27;9.82;;;4.03;;
26407;SDS011;14583;43.604;1.364;2024-03-02T10:03:52;13.43;;;4.18;;
26407;SDS011;14583;43.604;1.364;2024-03-02T10:06:22;15.63;;;4.25;;
26407;SDS011;14583;43.604;1.364;2024-03-02T10:08:52;10.35;;;4.25;;
26407;SDS011;14583;43.604;1.364;2024-03-02T10:11:26;16.70;;;4.10;;
26407;SDS011;14583;43.604;1.364;2024-03-02T10:14:13;11.88;;;3.85;;
26407;SDS011;14583;43.604;1.364;2024-03-02T10:16:40;17.50;;;4.35;;
26407;SDS011;14583;43.604;1.364;2024-03-02T10:19:17;12.60;;;3.90;;
26407;SDS011;14583;43.604;1.364;2024-03-02T10:21:52;12.45;;;4.40;;
26407;SDS011;14583;43.604;1.364;2024-03-02T10:24:19;13.98;;;4.00;;
26407;SDS011;14583;43.604;1.364;2024-03-02T10:26:46;18.27;;;5.07;;
26407;SDS011;14583;43.604;1.364;2024-03-02T10:29:12;14.55;;;4.85;;
26407;SDS011;14583;43.604;1.364;2024-03-02T10:31:38;27.48;;;5.63;;
26407;SDS011;14583;43.604;1.364;2024-03-02T10:34:09;18.25;;;4.85;;
26407;SDS011;14583;43.604;1.364;2024-03-02T10:36:36;15.23;;;4.28;;
26407;SDS011;14583;43.604;1.364;2024-03-02T10:39:05;15.65;;;4.75;;
26407;SDS011;14583;43.604;1.364;2024-03-02T10:41:33;12.63;;;4.30;;
26407;SDS011;14583;43.604;1.364;2024-03-02T10:44:05;20.73;;;4.35;;
26407;SDS011;14583;43.604;1.364;2024-03-02T10:46:32;11.63;;;4.55;;
26407;SDS011;14583;43.604;1.364;2024-03-02T10:49:00;16.13;;;4.57;;
26407;SDS011;14583;43.604;1.364;2024-03-02T10:51:30;25.00;;;5.03;;
26407;SDS011;14583;43.604;1.364;2024-03-02T10:54:05;12.07;;;4.82;;
26407;SDS011;14583;43.604;1.364;2024-03-02T10:56:31;11.57;;;4.65;;
26407;SDS011;14583;43.604;1.364;2024-03-02T10:59:42;15.05;;;4.80;;
26407;SDS011;14583;43.604;1.364;2024-03-02T11:02:01;18.20;;;4.20;;
26407;SDS011;14583;43.604;1.364;2024-03-02T11:04:29;107.00;;;22.33;;
26407;SDS011;14583;43.604;1.364;2024-03-02T11:07:00;25.50;;;5.40;;
26407;SDS011;14583;43.604;1.364;2024-03-02T11:12:06;57.83;;;11.40;;
26407;SDS011;14583;43.604;1.364;2024-03-02T11:14:40;61.08;;;10.95;;
26407;SDS011;14583;43.604;1.364;2024-03-02T11:17:10;21.98;;;4.80;;
26407;SDS011;14583;43.604;1.364;2024-03-02T11:19:38;21.23;;;5.55;;
26407;SDS011;14583;43.604;1.364;2024-03-02T11:22:05;28.92;;;7.68;;
26407;SDS011;14583;43.604;1.364;2024-03-02T11:24:32;35.00;;;7.78;;
26407;SDS011;14583;43.604;1.364;2024-03-02T11:26:58;21.60;;;5.35;;
26407;SDS011;14583;43.604;1.364;2024-03-02T11:32:03;11.48;;;3.95;;
26407;SDS011;14583;43.604;1.364;2024-03-02T11:36:59;13.10;;;3.95;;
26407;SDS011;14583;43.604;1.364;2024-03-02T11:39:27;11.68;;;3.75;;
26407;SDS011;14583;43.604;1.364;2024-03-02T11:41:53;11.68;;;3.72;;
26407;SDS011;14583;43.604;1.364;2024-03-02T11:44:26;14.93;;;4.15;;
26407;SDS011;14583;43.604;1.364;2024-03-02T11:46:58;11.45;;;3.92;;
26407;SDS011;14583;43.604;1.364;2024-03-02T11:52:06;12.75;;;3.65;;
26407;SDS011;14583;43.604;1.364;2024-03-02T11:54:34;12.52;;;4.07;;
26407;SDS011;14583;43.604;1.364;2024-03-02T11:57:02;27.23;;;4.97;;
26407;SDS011;14583;43.604;1.364;2024-03-02T11:59:29;17.23;;;3.90;;
26407;SDS011;14583;43.604;1.364;2024-03-02T12:01:55;15.63;;;3.88;;
26407;SDS011;14583;43.604;1.364;2024-03-02T12:04:21;15.43;;;3.92;;
26407;SDS011;14583;43.604;1.364;2024-03-02T12:06:48;44.25;;;5.00;;
26407;SDS011;14583;43.604;1.364;2024-03-02T12:09:21;18.52;;;4.40;;
26407;SDS011;14583;43.604;1.364;2024-03-02T12:11:47;16.42;;;4.47;;
26407;SDS011;14583;43.604;1.364;2024-03-02T12:14:12;16.80;;;3.90;;
26407;SDS011;14583;43.604;1.364;2024-03-02T12:16:38;9.85;;;3.45;;
26407;SDS011;14583;43.604;1.364;2024-03-02T12:19:08;9.95;;;3.42;;
26407;SDS011;14583;43.604;1.364;2024-03-02T12:21:33;11.07;;;4.05;;
26407;SDS011;14583;43.604;1.364;2024-03-02T12:23:59;20.55;;;4.43;;
26407;SDS011;14583;43.604;1.364;2024-03-02T12:26:26;13.57;;;4.28;;
26407;SDS011;14583;43.604;1.364;2024-03-02T12:28:52;9.32;;;3.47;;
26407;SDS011;14583;43.604;1.364;2024-03-02T12:31:18;11.88;;;3.90;;
26407;SDS011;14583;43.604;1.364;2024-03-02T12:33:43;10.93;;;4.03;;
26407;SDS011;14583;43.604;1.364;2024-03-02T12:36:10;16.67;;;4.20;;
26407;SDS011;14583;43.604;1.364;2024-03-02T12:38:37;14.07;;;4.05;;
26407;SDS011;14583;43.604;1.364;2024-03-02T12:41:08;15.30;;;4.05;;
26407;SDS011;14583;43.604;1.364;2024-03-02T12:43:33;9.13;;;3.78;;
26407;SDS011;14583;43.604;1.364;2024-03-02T12:45:59;11.48;;;3.95;;
26407;SDS011;14583;43.604;1.364;2024-03-02T12:48:25;13.80;;;4.13;;
26407;SDS011;14583;43.604;1.364;2024-03-02T12:50:51;20.17;;;4.13;;
26407;SDS011;14583;43.604;1.364;2024-03-02T12:53:17;10.35;;;4.25;;
26407;SDS011;14583;43.604;1.364;2024-03-02T12:55:43;16.48;;;4.47;;
26407;SDS011;14583;43.604;1.364;2024-03-02T12:58:16;12.43;;;4.50;;
26407;SDS011;14583;43.604;1.364;2024-03-02T13:00:43;15.15;;;4.32;;
26407;SDS011;14583;43.604;1.364;2024-03-02T13:03:09;15.95;;;4.70;;
26407;SDS011;14583;43.604;1.364;2024-03-02T13:05:36;13.23;;;4.63;;
26407;SDS011;14583;43.604;1.364;2024-03-02T13:08:02;12.77;;;4.28;;
26407;SDS011;14583;43.604;1.364;2024-03-02T13:10:29;13.55;;;4.38;;
26407;SDS011;14583;43.604;1.364;2024-03-02T13:12:58;10.63;;;3.90;;
26407;SDS011;14583;43.604;1.364;2024-03-02T13:15:26;10.57;;;4.15;;
26407;SDS011;14583;43.604;1.364;2024-03-02T13:17:52;15.57;;;4.30;;
26407;SDS011;14583;43.604;1.364;2024-03-02T13:20:18;13.88;;;3.90;;
26407;SDS011;14583;43.604;1.364;2024-03-02T13:22:45;14.40;;;4.18;;
26407;SDS011;14583;43.604;1.364;2024-03-02T13:25:10;14.65;;;5.43;;
26407;SDS011;14583;43.604;1.364;2024-03-02T13:27:36;11.38;;;3.78;;
26407;SDS011;14583;43.604;1.364;2024-03-02T13:30:03;11.02;;;3.72;;
26407;SDS011;14583;43.604;1.364;2024-03-02T13:32:31;9.20;;;3.55;;
26407;SDS011;14583;43.604;1.364;2024-03-02T13:34:56;12.77;;;3.67;;
26407;SDS011;14583;43.604;1.364;2024-03-02T13:37:22;11.73;;;3.75;;
26407;SDS011;14583;43.604;1.364;2024-03-02T13:39:48;11.50;;;4.10;;
26407;SDS011;14583;43.604;1.364;2024-03-02T13:42:14;11.82;;;4.18;;
26407;SDS011;14583;43.604;1.364;2024-03-02T13:44:40;9.07;;;3.70;;
26407;SDS011;14583;43.604;1.364;2024-03-02T13:47:14;11.80;;;3.50;;
26407;SDS011;14583;43.604;1.364;2024-03-02T13:49:40;13.70;;;3.58;;
26407;SDS011;14583;43.604;1.364;2024-03-02T13:52:09;13.25;;;4.07;;
26407;SDS011;14583;43.604;1.364;2024-03-02T13:54:42;10.70;;;3.60;;
26407;SDS011;14583;43.604;1.364;2024-03-02T13:57:09;11.75;;;3.78;;
26407;SDS011;14583;43.604;1.364;2024-03-02T13:59:36;11.00;;;3.55;;
26407;SDS011;14583;43.604;1.364;2024-03-02T14:02:02;12.90;;;4.15;;
26407;SDS011;14583;43.604;1.364;2024-03-02T14:04:31;10.32;;;3.70;;
26407;SDS011;14583;43.604;1.364;2024-03-02T14:06:58;13.63;;;3.53;;
26407;SDS011;14583;43.604;1.364;2024-03-02T14:09:24;14.98;;;4.10;;
26407;SDS011;14583;43.604;1.364;2024-03-02T14:11:50;13.25;;;5.03;;
26407;SDS011;14583;43.604;1.364;2024-03-02T14:14:17;11.43;;;3.70;;
26407;SDS011;14583;43.604;1.364;2024-03-02T14:16:43;12.20;;;3.45;;
26407;SDS011;14583;43.604;1.364;2024-03-02T14:19:10;12.57;;;3.90;;
26407;SDS011;14583;43.604;1.364;2024-03-02T14:21:37;11.05;;;3.92;;
26407;SDS011;14583;43.604;1.364;2024-03-02T14:24:03;10.80;;;3.20;;
26407;SDS011;14583;43.604;1.364;2024-03-02T14:26:29;12.23;;;4.25;;
26407;SDS011;14583;43.604;1.364;2024-03-02T14:28:55;10.77;;;3.70;;
26407;SDS011;14583;43.604;1.364;2024-03-02T14:31:21;15.95;;;3.58;;
26407;SDS011;14583;43.604;1.364;2024-03-02T14:33:46;9.55;;;3.90;;
26407;SDS011;14583;43.604;1.364;2024-03-02T14:36:12;13.63;;;3.60;;
26407;SDS011;14583;43.604;1.364;2024-03-02T14:38:38;12.50;;;4.15;;
26407;SDS011;14583;43.604;1.364;2024-03-02T14:41:04;10.23;;;4.15;;
26407;SDS011;14583;43.604;1.364;2024-03-02T14:43:30;12.88;;;3.97;;
26407;SDS011;14583;43.604;1.364;2024-03-02T14:45:56;12.88;;;4.55;;
26407;SDS011;14583;43.604;1.364;2024-03-02T14:48:24;16.95;;;4.13;;
26407;SDS011;14583;43.604;1.364;2024-03-02T14:50:50;12.05;;;3.67;;
26407;SDS011;14583;43.604;1.364;2024-03-02T14:53:16;12.30;;;3.60;;